Saint Francis, Wisconsin
Current Conditions -  °F | °C
As of 10:52 AM on Monday 22 Dec 2014 (Local Time) from KMKE Reporting Station
Haze Haze  
Wind Chill: 28°   Ceiling: 1100
Heat Index: 37°   Visibility: 5mi
Dew Point: 31°   Wind: 14mph
Humidity: 79%   Direction: 140°SE
Pressure: 29.88"   Gusts: NA
Location:  42.97°N, 87.88°W
Report Text: KMKE 221652Z 14012KT 5SM HZ OVC011 03/M01 A2988 RMK AO2 SLP125 T00281006
Loading
Personal Weather Stations






























Interactive Weather Map New forecast layout! Learn more

10-Day Weather Forecast

Advertisements
Track Severe Weather on mobile